sensor_id;sensor_type;location;lat;lon;timestamp;P1;durP1;ratioP1;P2;durP2;ratioP2
583;SDS011;27024;54.068;12.116;2023-03-01T00:01:10;6.97;;;3.30;;
583;SDS011;27024;54.068;12.116;2023-03-01T00:03:39;9.57;;;3.63;;
583;SDS011;27024;54.068;12.116;2023-03-01T00:06:06;6.75;;;2.92;;
583;SDS011;27024;54.068;12.116;2023-03-01T00:08:34;8.38;;;3.75;;
583;SDS011;27024;54.068;12.116;2023-03-01T00:11:05;5.63;;;2.97;;
583;SDS011;27024;54.068;12.116;2023-03-01T00:13:36;6.30;;;3.15;;
583;SDS011;27024;54.068;12.116;2023-03-01T00:16:03;7.82;;;3.30;;
583;SDS011;27024;54.068;12.116;2023-03-01T00:18:32;7.38;;;3.47;;
583;SDS011;27024;54.068;12.116;2023-03-01T00:20:59;8.70;;;3.55;;
583;SDS011;27024;54.068;12.116;2023-03-01T00:23:27;8.55;;;3.60;;
583;SDS011;27024;54.068;12.116;2023-03-01T00:25:55;7.90;;;4.05;;
583;SDS011;27024;54.068;12.116;2023-03-01T00:28:21;7.07;;;3.33;;
583;SDS011;27024;54.068;12.116;2023-03-01T00:30:48;9.20;;;3.42;;
583;SDS011;27024;54.068;12.116;2023-03-01T00:33:15;10.52;;;3.45;;
583;SDS011;27024;54.068;12.116;2023-03-01T00:35:42;8.00;;;3.20;;
583;SDS011;27024;54.068;12.116;2023-03-01T00:38:10;8.63;;;3.35;;
583;SDS011;27024;54.068;12.116;2023-03-01T00:40:37;6.95;;;3.30;;
583;SDS011;27024;54.068;12.116;2023-03-01T00:43:05;9.27;;;3.55;;
583;SDS011;27024;54.068;12.116;2023-03-01T00:45:32;10.10;;;3.20;;
583;SDS011;27024;54.068;12.116;2023-03-01T00:47:59;11.85;;;3.35;;
583;SDS011;27024;54.068;12.116;2023-03-01T00:50:26;7.25;;;3.58;;
583;SDS011;27024;54.068;12.116;2023-03-01T00:52:55;9.30;;;3.88;;
583;SDS011;27024;54.068;12.116;2023-03-01T00:55:22;8.00;;;3.05;;
583;SDS011;27024;54.068;12.116;2023-03-01T00:57:50;6.75;;;3.13;;
583;SDS011;27024;54.068;12.116;2023-03-01T01:00:18;6.88;;;3.55;;
583;SDS011;27024;54.068;12.116;2023-03-01T01:02:45;8.60;;;3.10;;
583;SDS011;27024;54.068;12.116;2023-03-01T01:05:12;8.68;;;3.50;;
583;SDS011;27024;54.068;12.116;2023-03-01T01:07:40;5.80;;;3.20;;
583;SDS011;27024;54.068;12.116;2023-03-01T01:10:07;8.05;;;3.35;;
583;SDS011;27024;54.068;12.116;2023-03-01T01:12:39;7.95;;;3.55;;
583;SDS011;27024;54.068;12.116;2023-03-01T01:15:05;8.55;;;3.28;;
583;SDS011;27024;54.068;12.116;2023-03-01T01:17:33;8.07;;;3.20;;
583;SDS011;27024;54.068;12.116;2023-03-01T01:19:59;6.35;;;2.90;;
583;SDS011;27024;54.068;12.116;2023-03-01T01:22:26;9.65;;;3.25;;
583;SDS011;27024;54.068;12.116;2023-03-01T01:24:53;7.07;;;3.70;;
583;SDS011;27024;54.068;12.116;2023-03-01T01:27:20;8.52;;;3.90;;
583;SDS011;27024;54.068;12.116;2023-03-01T01:29:48;7.35;;;3.30;;
583;SDS011;27024;54.068;12.116;2023-03-01T01:32:15;7.25;;;3.33;;
583;SDS011;27024;54.068;12.116;2023-03-01T01:34:42;8.65;;;3.70;;
583;SDS011;27024;54.068;12.116;2023-03-01T01:37:09;6.30;;;3.10;;
583;SDS011;27024;54.068;12.116;2023-03-01T01:39:36;6.88;;;3.38;;
583;SDS011;27024;54.068;12.116;2023-03-01T01:42:03;7.50;;;3.63;;
583;SDS011;27024;54.068;12.116;2023-03-01T01:44:30;7.10;;;3.85;;
583;SDS011;27024;54.068;12.116;2023-03-01T01:46:59;7.78;;;3.40;;
583;SDS011;27024;54.068;12.116;2023-03-01T01:49:41;7.10;;;3.67;;
583;SDS011;27024;54.068;12.116;2023-03-01T01:52:25;8.02;;;3.85;;
583;SDS011;27024;54.068;12.116;2023-03-01T01:57:27;7.32;;;3.45;;
583;SDS011;27024;54.068;12.116;2023-03-01T02:00:00;7.85;;;4.07;;
583;SDS011;27024;54.068;12.116;2023-03-01T02:02:31;6.82;;;3.33;;
583;SDS011;27024;54.068;12.116;2023-03-01T02:05:02;6.80;;;3.40;;
583;SDS011;27024;54.068;12.116;2023-03-01T02:07:37;9.45;;;4.13;;
583;SDS011;27024;54.068;12.116;2023-03-01T02:10:06;7.75;;;3.83;;
583;SDS011;27024;54.068;12.116;2023-03-01T02:12:33;9.55;;;3.85;;
583;SDS011;27024;54.068;12.116;2023-03-01T02:15:02;7.22;;;3.58;;
583;SDS011;27024;54.068;12.116;2023-03-01T02:17:29;7.95;;;4.32;;
583;SDS011;27024;54.068;12.116;2023-03-01T02:19:59;7.75;;;3.80;;
583;SDS011;27024;54.068;12.116;2023-03-01T02:22:39;7.10;;;3.63;;
583;SDS011;27024;54.068;12.116;2023-03-01T02:27:51;11.55;;;4.35;;
583;SDS011;27024;54.068;12.116;2023-03-01T02:30:21;7.80;;;4.00;;
583;SDS011;27024;54.068;12.116;2023-03-01T02:32:49;6.97;;;3.72;;
583;SDS011;27024;54.068;12.116;2023-03-01T02:35:19;9.70;;;4.13;;
583;SDS011;27024;54.068;12.116;2023-03-01T02:37:47;7.63;;;3.97;;
583;SDS011;27024;54.068;12.116;2023-03-01T02:40:16;8.93;;;3.92;;
583;SDS011;27024;54.068;12.116;2023-03-01T02:42:54;8.52;;;4.18;;
583;SDS011;27024;54.068;12.116;2023-03-01T02:45:23;8.20;;;3.70;;
583;SDS011;27024;54.068;12.116;2023-03-01T02:47:53;7.47;;;3.65;;
583;SDS011;27024;54.068;12.116;2023-03-01T02:50:25;8.13;;;4.05;;
583;SDS011;27024;54.068;12.116;2023-03-01T02:53:19;9.27;;;4.60;;
583;SDS011;27024;54.068;12.116;2023-03-01T02:55:54;9.75;;;3.97;;
583;SDS011;27024;54.068;12.116;2023-03-01T02:58:21;7.82;;;4.20;;
583;SDS011;27024;54.068;12.116;2023-03-01T03:00:47;8.95;;;4.15;;
583;SDS011;27024;54.068;12.116;2023-03-01T03:03:16;8.70;;;3.88;;
583;SDS011;27024;54.068;12.116;2023-03-01T03:05:45;10.43;;;5.80;;
583;SDS011;27024;54.068;12.116;2023-03-01T03:08:13;8.00;;;3.63;;
583;SDS011;27024;54.068;12.116;2023-03-01T03:10:50;8.68;;;4.00;;
583;SDS011;27024;54.068;12.116;2023-03-01T03:13:17;8.60;;;3.58;;
583;SDS011;27024;54.068;12.116;2023-03-01T03:15:45;8.65;;;3.67;;
583;SDS011;27024;54.068;12.116;2023-03-01T03:18:13;7.18;;;4.03;;
583;SDS011;27024;54.068;12.116;2023-03-01T03:20:43;9.15;;;3.78;;
583;SDS011;27024;54.068;12.116;2023-03-01T03:23:10;7.63;;;3.60;;
583;SDS011;27024;54.068;12.116;2023-03-01T03:25:37;10.30;;;3.65;;
583;SDS011;27024;54.068;12.116;2023-03-01T03:28:05;8.15;;;4.13;;
583;SDS011;27024;54.068;12.116;2023-03-01T03:30:38;8.80;;;4.20;;
583;SDS011;27024;54.068;12.116;2023-03-01T03:33:06;8.70;;;3.65;;
583;SDS011;27024;54.068;12.116;2023-03-01T03:35:42;7.32;;;3.75;;
583;SDS011;27024;54.068;12.116;2023-03-01T03:38:13;7.07;;;3.55;;
583;SDS011;27024;54.068;12.116;2023-03-01T03:40:49;8.60;;;3.88;;
583;SDS011;27024;54.068;12.116;2023-03-01T03:43:18;7.70;;;3.28;;
583;SDS011;27024;54.068;12.116;2023-03-01T03:45:48;7.38;;;3.95;;
583;SDS011;27024;54.068;12.116;2023-03-01T03:48:16;7.32;;;3.42;;
583;SDS011;27024;54.068;12.116;2023-03-01T03:50:47;7.28;;;4.53;;
583;SDS011;27024;54.068;12.116;2023-03-01T03:53:17;6.78;;;3.38;;
583;SDS011;27024;54.068;12.116;2023-03-01T03:55:45;7.40;;;3.63;;
583;SDS011;27024;54.068;12.116;2023-03-01T03:58:16;8.98;;;4.60;;
583;SDS011;27024;54.068;12.116;2023-03-01T04:00:46;9.05;;;4.20;;
583;SDS011;27024;54.068;12.116;2023-03-01T04:03:15;8.05;;;3.53;;
583;SDS011;27024;54.068;12.116;2023-03-01T04:05:45;8.98;;;4.65;;
583;SDS011;27024;54.068;12.116;2023-03-01T04:08:12;7.97;;;3.75;;
583;SDS011;27024;54.068;12.116;2023-03-01T04:10:41;7.15;;;3.33;;
583;SDS011;27024;54.068;12.116;2023-03-01T04:13:13;8.35;;;3.35;;
583;SDS011;27024;54.068;12.116;2023-03-01T04:15:42;8.50;;;4.65;;
583;SDS011;27024;54.068;12.116;2023-03-01T04:18:12;8.35;;;3.58;;
583;SDS011;27024;54.068;12.116;2023-03-01T04:20:41;9.75;;;4.13;;
583;SDS011;27024;54.068;12.116;2023-03-01T04:23:16;8.45;;;3.80;;
583;SDS011;27024;54.068;12.116;2023-03-01T04:25:47;8.65;;;4.10;;
583;SDS011;27024;54.068;12.116;2023-03-01T04:28:24;7.63;;;3.58;;
583;SDS011;27024;54.068;12.116;2023-03-01T04:33:23;8.57;;;3.45;;
583;SDS011;27024;54.068;12.116;2023-03-01T04:35:51;8.07;;;3.75;;
583;SDS011;27024;54.068;12.116;2023-03-01T04:38:19;7.97;;;4.32;;
583;SDS011;27024;54.068;12.116;2023-03-01T04:40:46;8.75;;;4.38;;
583;SDS011;27024;54.068;12.116;2023-03-01T04:43:13;8.38;;;4.32;;
583;SDS011;27024;54.068;12.116;2023-03-01T04:45:41;10.38;;;4.03;;
583;SDS011;27024;54.068;12.116;2023-03-01T04:48:08;9.57;;;3.92;;
583;SDS011;27024;54.068;12.116;2023-03-01T04:50:35;8.57;;;3.67;;
583;SDS011;27024;54.068;12.116;2023-03-01T04:53:01;8.95;;;4.47;;
583;SDS011;27024;54.068;12.116;2023-03-01T04:55:29;10.30;;;3.95;;
583;SDS011;27024;54.068;12.116;2023-03-01T04:57:56;7.28;;;3.67;;
583;SDS011;27024;54.068;12.116;2023-03-01T05:00:23;6.90;;;3.75;;
583;SDS011;27024;54.068;12.116;2023-03-01T05:05:28;9.40;;;4.05;;
583;SDS011;27024;54.068;12.116;2023-03-01T05:07:58;8.18;;;3.78;;
583;SDS011;27024;54.068;12.116;2023-03-01T05:10:27;8.57;;;4.10;;
583;SDS011;27024;54.068;12.116;2023-03-01T05:12:58;11.23;;;4.00;;
583;SDS011;27024;54.068;12.116;2023-03-01T05:15:26;9.65;;;4.60;;
583;SDS011;27024;54.068;12.116;2023-03-01T05:17:54;7.97;;;4.30;;
583;SDS011;27024;54.068;12.116;2023-03-01T05:20:28;11.25;;;4.90;;
583;SDS011;27024;54.068;12.116;2023-03-01T05:22:57;9.48;;;4.50;;
583;SDS011;27024;54.068;12.116;2023-03-01T05:25:26;9.20;;;4.40;;
583;SDS011;27024;54.068;12.116;2023-03-01T05:27:53;13.68;;;5.15;;
583;SDS011;27024;54.068;12.116;2023-03-01T05:30:20;10.73;;;4.75;;
583;SDS011;27024;54.068;12.116;2023-03-01T05:32:48;9.18;;;5.13;;
583;SDS011;27024;54.068;12.116;2023-03-01T05:35:22;9.68;;;4.45;;
583;SDS011;27024;54.068;12.116;2023-03-01T05:37:49;12.40;;;4.55;;
583;SDS011;27024;54.068;12.116;2023-03-01T05:40:20;11.38;;;4.60;;
583;SDS011;27024;54.068;12.116;2023-03-01T05:42:49;8.93;;;4.63;;
583;SDS011;27024;54.068;12.116;2023-03-01T05:45:18;9.60;;;4.38;;
583;SDS011;27024;54.068;12.116;2023-03-01T05:47:46;11.98;;;4.53;;
583;SDS011;27024;54.068;12.116;2023-03-01T05:52:40;8.48;;;4.03;;
583;SDS011;27024;54.068;12.116;2023-03-01T05:55:07;8.80;;;5.13;;
583;SDS011;27024;54.068;12.116;2023-03-01T05:57:34;10.68;;;4.20;;
583;SDS011;27024;54.068;12.116;2023-03-01T06:00:01;11.07;;;4.97;;
583;SDS011;27024;54.068;12.116;2023-03-01T06:02:28;10.30;;;4.57;;
583;SDS011;27024;54.068;12.116;2023-03-01T06:04:55;10.80;;;4.53;;
583;SDS011;27024;54.068;12.116;2023-03-01T06:07:22;8.90;;;4.32;;
583;SDS011;27024;54.068;12.116;2023-03-01T06:09:49;13.02;;;4.57;;
583;SDS011;27024;54.068;12.116;2023-03-01T06:12:16;11.10;;;4.78;;
583;SDS011;27024;54.068;12.116;2023-03-01T06:14:44;9.20;;;4.70;;
583;SDS011;27024;54.068;12.116;2023-03-01T06:17:12;13.93;;;5.35;;
583;SDS011;27024;54.068;12.116;2023-03-01T06:19:39;15.23;;;5.50;;
583;SDS011;27024;54.068;12.116;2023-03-01T06:22:06;10.88;;;5.28;;
583;SDS011;27024;54.068;12.116;2023-03-01T06:24:33;13.90;;;6.45;;
583;SDS011;27024;54.068;12.116;2023-03-01T06:27:00;13.65;;;6.38;;
583;SDS011;27024;54.068;12.116;2023-03-01T06:29:27;13.40;;;6.57;;
583;SDS011;27024;54.068;12.116;2023-03-01T06:31:53;9.30;;;5.20;;
583;SDS011;27024;54.068;12.116;2023-03-01T06:34:20;9.68;;;4.93;;
583;SDS011;27024;54.068;12.116;2023-03-01T06:36:48;13.13;;;5.93;;
583;SDS011;27024;54.068;12.116;2023-03-01T06:39:14;15.27;;;5.32;;
583;SDS011;27024;54.068;12.116;2023-03-01T06:41:43;10.98;;;4.88;;
583;SDS011;27024;54.068;12.116;2023-03-01T06:44:10;9.88;;;4.82;;
583;SDS011;27024;54.068;12.116;2023-03-01T06:46:38;9.60;;;4.85;;
583;SDS011;27024;54.068;12.116;2023-03-01T06:49:06;11.48;;;4.85;;
583;SDS011;27024;54.068;12.116;2023-03-01T06:51:36;12.50;;;5.47;;
583;SDS011;27024;54.068;12.116;2023-03-01T06:54:06;10.98;;;5.35;;
583;SDS011;27024;54.068;12.116;2023-03-01T06:56:33;11.63;;;5.57;;
583;SDS011;27024;54.068;12.116;2023-03-01T06:58:59;11.95;;;5.28;;
583;SDS011;27024;54.068;12.116;2023-03-01T07:01:26;13.07;;;6.47;;
583;SDS011;27024;54.068;12.116;2023-03-01T07:03:53;14.93;;;6.88;;
583;SDS011;27024;54.068;12.116;2023-03-01T07:06:20;12.70;;;6.93;;
583;SDS011;27024;54.068;12.116;2023-03-01T07:08:48;12.07;;;6.47;;
583;SDS011;27024;54.068;12.116;2023-03-01T07:11:15;11.13;;;6.07;;
583;SDS011;27024;54.068;12.116;2023-03-01T07:13:42;12.68;;;6.13;;
583;SDS011;27024;54.068;12.116;2023-03-01T07:16:09;12.68;;;6.03;;
583;SDS011;27024;54.068;12.116;2023-03-01T07:18:36;14.77;;;7.00;;
583;SDS011;27024;54.068;12.116;2023-03-01T07:21:09;15.07;;;7.05;;
583;SDS011;27024;54.068;12.116;2023-03-01T07:23:39;19.70;;;9.93;;
583;SDS011;27024;54.068;12.116;2023-03-01T07:26:06;17.23;;;8.50;;
583;SDS011;27024;54.068;12.116;2023-03-01T07:28:33;17.02;;;7.93;;
583;SDS011;27024;54.068;12.116;2023-03-01T07:31:02;16.27;;;7.43;;
583;SDS011;27024;54.068;12.116;2023-03-01T07:33:29;21.17;;;9.07;;
583;SDS011;27024;54.068;12.116;2023-03-01T07:36:00;22.38;;;10.20;;
583;SDS011;27024;54.068;12.116;2023-03-01T07:38:28;27.67;;;11.05;;
583;SDS011;27024;54.068;12.116;2023-03-01T07:41:00;30.77;;;12.05;;
583;SDS011;27024;54.068;12.116;2023-03-01T07:43:28;29.42;;;11.07;;
583;SDS011;27024;54.068;12.116;2023-03-01T07:46:00;32.10;;;11.95;;
583;SDS011;27024;54.068;12.116;2023-03-01T07:48:27;40.22;;;15.57;;
583;SDS011;27024;54.068;12.116;2023-03-01T07:50:57;37.00;;;15.15;;
583;SDS011;27024;54.068;12.116;2023-03-01T07:53:25;36.17;;;14.23;;
583;SDS011;27024;54.068;12.116;2023-03-01T07:56:03;44.03;;;14.77;;
583;SDS011;27024;54.068;12.116;2023-03-01T07:58:31;44.60;;;15.30;;
583;SDS011;27024;54.068;12.116;2023-03-01T08:01:04;43.83;;;16.33;;
583;SDS011;27024;54.068;12.116;2023-03-01T08:03:33;49.17;;;16.50;;
583;SDS011;27024;54.068;12.116;2023-03-01T08:06:00;45.38;;;15.13;;
583;SDS011;27024;54.068;12.116;2023-03-01T08:08:29;53.13;;;17.05;;
583;SDS011;27024;54.068;12.116;2023-03-01T08:10:57;53.78;;;18.88;;
583;SDS011;27024;54.068;12.116;2023-03-01T08:13:24;54.45;;;18.77;;
583;SDS011;27024;54.068;12.116;2023-03-01T08:15:52;62.58;;;16.42;;
583;SDS011;27024;54.068;12.116;2023-03-01T08:18:19;51.92;;;17.15;;
583;SDS011;27024;54.068;12.116;2023-03-01T08:20:47;59.42;;;16.40;;
583;SDS011;27024;54.068;12.116;2023-03-01T08:23:14;67.68;;;16.48;;
583;SDS011;27024;54.068;12.116;2023-03-01T08:25:41;49.25;;;17.17;;
583;SDS011;27024;54.068;12.116;2023-03-01T08:28:08;44.42;;;16.05;;
583;SDS011;27024;54.068;12.116;2023-03-01T08:30:35;45.78;;;15.52;;
583;SDS011;27024;54.068;12.116;2023-03-01T08:33:02;41.95;;;14.90;;
583;SDS011;27024;54.068;12.116;2023-03-01T08:35:29;46.65;;;17.65;;
583;SDS011;27024;54.068;12.116;2023-03-01T08:37:55;38.72;;;15.57;;
583;SDS011;27024;54.068;12.116;2023-03-01T08:40:22;36.50;;;15.43;;
583;SDS011;27024;54.068;12.116;2023-03-01T08:42:49;33.80;;;14.40;;
583;SDS011;27024;54.068;12.116;2023-03-01T08:45:16;32.30;;;14.05;;
583;SDS011;27024;54.068;12.116;2023-03-01T08:47:44;32.10;;;13.95;;
583;SDS011;27024;54.068;12.116;2023-03-01T08:50:11;36.28;;;15.05;;
583;SDS011;27024;54.068;12.116;2023-03-01T08:52:38;36.97;;;14.25;;
583;SDS011;27024;54.068;12.116;2023-03-01T08:55:05;33.83;;;14.32;;
583;SDS011;27024;54.068;12.116;2023-03-01T08:57:33;27.17;;;12.50;;
583;SDS011;27024;54.068;12.116;2023-03-01T08:59:59;30.48;;;13.45;;
583;SDS011;27024;54.068;12.116;2023-03-01T09:02:26;39.08;;;14.23;;
583;SDS011;27024;54.068;12.116;2023-03-01T09:04:53;28.60;;;14.07;;
583;SDS011;27024;54.068;12.116;2023-03-01T09:07:19;27.90;;;12.75;;
583;SDS011;27024;54.068;12.116;2023-03-01T09:09:46;31.45;;;15.13;;
583;SDS011;27024;54.068;12.116;2023-03-01T09:12:13;27.02;;;12.80;;
583;SDS011;27024;54.068;12.116;2023-03-01T09:14:40;30.67;;;14.90;;
583;SDS011;27024;54.068;12.116;2023-03-01T09:17:07;28.42;;;13.48;;
583;SDS011;27024;54.068;12.116;2023-03-01T09:19:34;28.58;;;12.98;;
583;SDS011;27024;54.068;12.116;2023-03-01T09:22:02;29.55;;;13.65;;
583;SDS011;27024;54.068;12.116;2023-03-01T09:24:30;30.17;;;14.65;;
583;SDS011;27024;54.068;12.116;2023-03-01T09:26:57;31.45;;;14.68;;
583;SDS011;27024;54.068;12.116;2023-03-01T09:29:24;30.65;;;13.90;;
583;SDS011;27024;54.068;12.116;2023-03-01T09:31:52;34.50;;;13.10;;
583;SDS011;27024;54.068;12.116;2023-03-01T09:34:22;32.15;;;14.38;;
583;SDS011;27024;54.068;12.116;2023-03-01T09:36:50;33.63;;;13.05;;
583;SDS011;27024;54.068;12.116;2023-03-01T09:39:17;31.70;;;13.05;;
583;SDS011;27024;54.068;12.116;2023-03-01T09:44:27;32.15;;;14.85;;
583;SDS011;27024;54.068;12.116;2023-03-01T09:47:17;34.30;;;14.65;;
583;SDS011;27024;54.068;12.116;2023-03-01T09:50:06;36.70;;;15.57;;
583;SDS011;27024;54.068;12.116;2023-03-01T09:53:05;41.85;;;14.75;;
583;SDS011;27024;54.068;12.116;2023-03-01T09:55:43;38.65;;;15.75;;
583;SDS011;27024;54.068;12.116;2023-03-01T09:58:33;36.30;;;14.95;;
583;SDS011;27024;54.068;12.116;2023-03-01T10:04:26;33.22;;;14.15;;
583;SDS011;27024;54.068;12.116;2023-03-01T10:09:45;35.25;;;14.70;;
583;SDS011;27024;54.068;12.116;2023-03-01T10:12:20;37.58;;;15.98;;
583;SDS011;27024;54.068;12.116;2023-03-01T10:15:05;37.63;;;15.07;;
583;SDS011;27024;54.068;12.116;2023-03-01T10:20:52;38.95;;;16.30;;
583;SDS011;27024;54.068;12.116;2023-03-01T10:23:23;38.30;;;15.52;;
583;SDS011;27024;54.068;12.116;2023-03-01T10:28:31;41.85;;;16.35;;
583;SDS011;27024;54.068;12.116;2023-03-01T10:31:12;39.88;;;15.68;;
583;SDS011;27024;54.068;12.116;2023-03-01T10:33:41;38.15;;;15.68;;
583;SDS011;27024;54.068;12.116;2023-03-01T10:36:08;38.13;;;15.43;;
583;SDS011;27024;54.068;12.116;2023-03-01T10:41:18;35.60;;;14.73;;
583;SDS011;27024;54.068;12.116;2023-03-01T10:43:49;38.20;;;15.32;;
583;SDS011;27024;54.068;12.116;2023-03-01T10:49:05;43.65;;;15.82;;
583;SDS011;27024;54.068;12.116;2023-03-01T10:51:34;42.80;;;16.63;;
583;SDS011;27024;54.068;12.116;2023-03-01T10:54:00;41.58;;;16.60;;
583;SDS011;27024;54.068;12.116;2023-03-01T10:56:29;37.80;;;16.63;;
583;SDS011;27024;54.068;12.116;2023-03-01T10:59:19;39.30;;;15.25;;
583;SDS011;27024;54.068;12.116;2023-03-01T11:02:20;41.50;;;16.73;;
583;SDS011;27024;54.068;12.116;2023-03-01T11:04:57;37.63;;;15.93;;
583;SDS011;27024;54.068;12.116;2023-03-01T11:07:28;39.45;;;16.85;;
583;SDS011;27024;54.068;12.116;2023-03-01T11:09:55;39.42;;;16.15;;
583;SDS011;27024;54.068;12.116;2023-03-01T11:12:22;37.38;;;15.85;;
583;SDS011;27024;54.068;12.116;2023-03-01T11:14:52;38.85;;;15.93;;
583;SDS011;27024;54.068;12.116;2023-03-01T11:17:27;40.60;;;16.33;;
583;SDS011;27024;54.068;12.116;2023-03-01T11:25:13;40.38;;;16.25;;
583;SDS011;27024;54.068;12.116;2023-03-01T11:27:41;38.70;;;15.45;;
583;SDS011;27024;54.068;12.116;2023-03-01T11:33:05;35.70;;;15.13;;
583;SDS011;27024;54.068;12.116;2023-03-01T11:35:46;39.05;;;15.98;;
583;SDS011;27024;54.068;12.116;2023-03-01T11:38:26;39.00;;;16.33;;
583;SDS011;27024;54.068;12.116;2023-03-01T11:43:59;40.00;;;16.13;;
583;SDS011;27024;54.068;12.116;2023-03-01T11:57:17;46.58;;;18.40;;
583;SDS011;27024;54.068;12.116;2023-03-01T12:22:38;42.17;;;16.40;;
583;SDS011;27024;54.068;12.116;2023-03-01T12:28:50;43.05;;;15.93;;
583;SDS011;27024;54.068;12.116;2023-03-01T12:45:16;40.65;;;15.50;;
583;SDS011;27024;54.068;12.116;2023-03-01T12:50:51;41.05;;;15.32;;
583;SDS011;27024;54.068;12.116;2023-03-01T12:53:22;38.53;;;15.07;;
583;SDS011;27024;54.068;12.116;2023-03-01T12:55:52;36.53;;;14.93;;
583;SDS011;27024;54.068;12.116;2023-03-01T13:15:44;40.28;;;14.70;;
583;SDS011;27024;54.068;12.116;2023-03-01T13:20:46;32.55;;;14.00;;
583;SDS011;27024;54.068;12.116;2023-03-01T13:38:57;43.13;;;16.63;;
583;SDS011;27024;54.068;12.116;2023-03-01T13:46:56;39.53;;;17.17;;
583;SDS011;27024;54.068;12.116;2023-03-01T13:49:30;43.08;;;19.00;;
583;SDS011;27024;54.068;12.116;2023-03-01T13:57:44;39.47;;;16.92;;
583;SDS011;27024;54.068;12.116;2023-03-01T14:00:33;42.97;;;17.25;;
583;SDS011;27024;54.068;12.116;2023-03-01T14:03:19;38.05;;;15.63;;
583;SDS011;27024;54.068;12.116;2023-03-01T14:06:05;38.22;;;16.08;;
583;SDS011;27024;54.068;12.116;2023-03-01T14:08:41;39.03;;;15.07;;
583;SDS011;27024;54.068;12.116;2023-03-01T14:19:17;43.90;;;15.85;;
583;SDS011;27024;54.068;12.116;2023-03-01T14:22:02;43.65;;;15.77;;
583;SDS011;27024;54.068;12.116;2023-03-01T14:24:37;44.65;;;17.55;;
583;SDS011;27024;54.068;12.116;2023-03-01T14:27:11;45.00;;;17.55;;
583;SDS011;27024;54.068;12.116;2023-03-01T14:29:39;48.55;;;17.05;;
583;SDS011;27024;54.068;12.116;2023-03-01T14:32:18;43.60;;;16.27;;
583;SDS011;27024;54.068;12.116;2023-03-01T14:34:47;45.30;;;16.98;;
583;SDS011;27024;54.068;12.116;2023-03-01T14:39:53;40.95;;;15.80;;
583;SDS011;27024;54.068;12.116;2023-03-01T14:42:21;42.85;;;15.40;;
583;SDS011;27024;54.068;12.116;2023-03-01T14:44:50;39.70;;;15.27;;
583;SDS011;27024;54.068;12.116;2023-03-01T14:47:25;33.75;;;13.48;;
583;SDS011;27024;54.068;12.116;2023-03-01T14:50:05;32.50;;;12.60;;
583;SDS011;27024;54.068;12.116;2023-03-01T14:52:40;36.72;;;13.98;;
583;SDS011;27024;54.068;12.116;2023-03-01T14:55:19;38.35;;;13.60;;
583;SDS011;27024;54.068;12.116;2023-03-01T14:57:57;32.17;;;13.57;;
583;SDS011;27024;54.068;12.116;2023-03-01T15:00:29;34.95;;;12.52;;
583;SDS011;27024;54.068;12.116;2023-03-01T15:03:00;31.23;;;13.35;;
583;SDS011;27024;54.068;12.116;2023-03-01T15:08:03;28.42;;;11.50;;
583;SDS011;27024;54.068;12.116;2023-03-01T15:10:32;34.38;;;12.45;;
583;SDS011;27024;54.068;12.116;2023-03-01T15:13:14;34.28;;;12.50;;
583;SDS011;27024;54.068;12.116;2023-03-01T15:15:49;30.75;;;12.13;;
583;SDS011;27024;54.068;12.116;2023-03-01T15:20:52;28.02;;;11.43;;
583;SDS011;27024;54.068;12.116;2023-03-01T15:23:21;29.13;;;11.93;;
583;SDS011;27024;54.068;12.116;2023-03-01T15:25:56;30.95;;;11.75;;
583;SDS011;27024;54.068;12.116;2023-03-01T15:28:25;27.65;;;10.93;;
583;SDS011;27024;54.068;12.116;2023-03-01T15:30:55;29.88;;;12.10;;
583;SDS011;27024;54.068;12.116;2023-03-01T15:33:30;25.88;;;11.18;;
583;SDS011;27024;54.068;12.116;2023-03-01T15:36:00;30.92;;;11.65;;
583;SDS011;27024;54.068;12.116;2023-03-01T15:41:37;29.52;;;12.85;;
583;SDS011;27024;54.068;12.116;2023-03-01T15:44:16;29.23;;;10.98;;
583;SDS011;27024;54.068;12.116;2023-03-01T15:46:55;26.05;;;10.45;;
583;SDS011;27024;54.068;12.116;2023-03-01T15:51:53;28.80;;;12.15;;
583;SDS011;27024;54.068;12.116;2023-03-01T15:54:22;31.40;;;11.85;;
583;SDS011;27024;54.068;12.116;2023-03-01T15:56:51;28.83;;;11.05;;
583;SDS011;27024;54.068;12.116;2023-03-01T15:59:18;29.42;;;11.02;;
583;SDS011;27024;54.068;12.116;2023-03-01T16:01:45;30.77;;;11.98;;
583;SDS011;27024;54.068;12.116;2023-03-01T16:04:15;31.08;;;11.77;;
583;SDS011;27024;54.068;12.116;2023-03-01T16:06:47;28.77;;;11.55;;
583;SDS011;27024;54.068;12.116;2023-03-01T16:09:24;33.08;;;12.20;;
583;SDS011;27024;54.068;12.116;2023-03-01T16:11:52;31.70;;;11.88;;
583;SDS011;27024;54.068;12.116;2023-03-01T16:14:19;30.98;;;11.25;;
583;SDS011;27024;54.068;12.116;2023-03-01T16:16:46;27.75;;;12.60;;
583;SDS011;27024;54.068;12.116;2023-03-01T16:19:16;34.22;;;11.30;;
583;SDS011;27024;54.068;12.116;2023-03-01T16:21:43;28.35;;;10.73;;
583;SDS011;27024;54.068;12.116;2023-03-01T16:24:13;28.65;;;10.75;;
583;SDS011;27024;54.068;12.116;2023-03-01T16:26:40;29.02;;;11.13;;
583;SDS011;27024;54.068;12.116;2023-03-01T16:29:08;26.00;;;9.80;;
583;SDS011;27024;54.068;12.116;2023-03-01T16:31:35;33.35;;;10.90;;
583;SDS011;27024;54.068;12.116;2023-03-01T16:34:02;35.03;;;10.85;;
583;SDS011;27024;54.068;12.116;2023-03-01T16:36:29;28.30;;;10.23;;
583;SDS011;27024;54.068;12.116;2023-03-01T16:38:57;37.55;;;11.45;;
583;SDS011;27024;54.068;12.116;2023-03-01T16:41:26;29.45;;;10.73;;
583;SDS011;27024;54.068;12.116;2023-03-01T16:43:53;29.83;;;11.10;;
583;SDS011;27024;54.068;12.116;2023-03-01T16:46:22;28.05;;;10.73;;
583;SDS011;27024;54.068;12.116;2023-03-01T16:48:51;30.85;;;9.27;;
583;SDS011;27024;54.068;12.116;2023-03-01T16:51:18;32.40;;;10.35;;
583;SDS011;27024;54.068;12.116;2023-03-01T16:53:46;28.35;;;9.50;;
583;SDS011;27024;54.068;12.116;2023-03-01T16:56:14;31.45;;;9.48;;
583;SDS011;27024;54.068;12.116;2023-03-01T16:58:41;31.27;;;8.82;;
583;SDS011;27024;54.068;12.116;2023-03-01T17:01:09;28.23;;;8.82;;
583;SDS011;27024;54.068;12.116;2023-03-01T17:03:38;24.75;;;8.70;;
583;SDS011;27024;54.068;12.116;2023-03-01T17:06:08;34.15;;;8.80;;
583;SDS011;27024;54.068;12.116;2023-03-01T17:08:38;36.72;;;8.88;;
583;SDS011;27024;54.068;12.116;2023-03-01T17:11:09;30.15;;;8.38;;
583;SDS011;27024;54.068;12.116;2023-03-01T17:13:37;25.42;;;8.43;;
583;SDS011;27024;54.068;12.116;2023-03-01T17:16:06;20.83;;;8.15;;
583;SDS011;27024;54.068;12.116;2023-03-01T17:18:34;28.80;;;7.82;;
583;SDS011;27024;54.068;12.116;2023-03-01T17:21:01;27.65;;;8.45;;
583;SDS011;27024;54.068;12.116;2023-03-01T17:23:28;28.30;;;8.38;;
583;SDS011;27024;54.068;12.116;2023-03-01T17:25:56;22.67;;;7.88;;
583;SDS011;27024;54.068;12.116;2023-03-01T17:28:24;33.08;;;8.00;;
583;SDS011;27024;54.068;12.116;2023-03-01T17:30:53;24.38;;;7.90;;
583;SDS011;27024;54.068;12.116;2023-03-01T17:33:20;24.52;;;7.57;;
583;SDS011;27024;54.068;12.116;2023-03-01T17:35:48;30.73;;;7.60;;
583;SDS011;27024;54.068;12.116;2023-03-01T17:38:16;27.33;;;7.80;;
583;SDS011;27024;54.068;12.116;2023-03-01T17:40:44;25.33;;;7.82;;
583;SDS011;27024;54.068;12.116;2023-03-01T17:43:15;24.80;;;7.47;;
583;SDS011;27024;54.068;12.116;2023-03-01T17:45:43;22.48;;;7.70;;
583;SDS011;27024;54.068;12.116;2023-03-01T17:48:14;31.88;;;7.93;;